Time;durP1;ratioP1;P1;durP2;ratioP2;P2;SDS_P1;SDS_P2;PMS_P1;PMS_P2;Temp;Humidity;BMP_temperature;BMP_pressure;BME280_temperature;BME280_humidity;BME280_pressure;Samples;Min_cycle;Max_cycle;Signal;HPM_P1;HPM_P2
2023/09/21 00:00:49;;;;;;;1.98;1.65;;;;;;;;;;5051529;28;20201;-73
2023/09/21 00:03:16;;;;;;;1.88;1.77;;;;;;;;;;5051128;28;20204;-73
2023/09/21 00:05:45;;;;;;;2.40;1.73;;;;;;;;;;5051279;28;20708;-73
2023/09/21 00:08:12;;;;;;;3.30;1.52;;;;;;;;;;5051320;28;20204;-73
2023/09/21 00:10:41;;;;;;;2.35;1.50;;;;;;;;;;5051567;28;20251;-73
2023/09/21 00:13:07;;;;;;;1.70;1.60;;;;;;;;;;5051286;28;20287;-73
2023/09/21 00:15:34;;;;;;;1.83;1.73;;;;;;;;;;5051170;28;20220;-73
2023/09/21 00:18:01;;;;;;;1.50;1.50;;;;;;;;;;5050944;28;20583;-73
2023/09/21 00:20:35;;;;;;;1.80;1.70;;;;;;;;;;5051485;28;20206;-73
2023/09/21 00:23:05;;;;;;;1.90;1.80;;;;;;;;;;5051419;28;20205;-73
2023/09/21 00:25:32;;;;;;;2.20;1.63;;;;;;;;;;5051053;28;20700;-73
2023/09/21 00:27:59;;;;;;;1.67;1.67;;;;;;;;;;5051061;28;20202;-73
2023/09/21 00:30:26;;;;;;;1.75;1.70;;;;;;;;;;5043214;28;20206;-73
2023/09/21 00:32:52;;;;;;;1.77;1.67;;;;;;;;;;5052283;28;20205;-73
2023/09/21 00:35:18;;;;;;;2.17;1.65;;;;;;;;;;5055014;28;20221;-73
2023/09/21 00:37:46;;;;;;;2.03;1.92;;;;;;;;;;5054612;28;20583;-73
2023/09/21 00:40:24;;;;;;;1.70;1.67;;;;;;;;;;5055039;28;20209;-73
2023/09/21 00:42:52;;;;;;;1.83;1.73;;;;;;;;;;5054758;28;20287;-73
2023/09/21 00:45:21;;;;;;;2.45;1.55;;;;;;;;;;5054835;28;20225;-73
2023/09/21 00:47:49;;;;;;;2.80;1.48;;;;;;;;;;5054629;28;20209;-73
2023/09/21 00:50:16;;;;;;;1.85;1.63;;;;;;;;;;5053376;28;20286;-73
2023/09/21 00:52:43;;;;;;;1.63;1.55;;;;;;;;;;5054750;28;20209;-73
2023/09/21 00:55:10;;;;;;;1.95;1.85;;;;;;;;;;5054443;28;20221;-73
2023/09/21 00:57:36;;;;;;;2.25;1.63;;;;;;;;;;5054487;28;20193;-73
2023/09/21 01:00:08;;;;;;;2.40;1.92;;;;;;;;;;5054297;28;20624;-73
2023/09/21 01:02:36;;;;;;;2.28;2.08;;;;;;;;;;5054840;28;20197;-73
2023/09/21 01:05:09;;;;;;;4.07;2.20;;;;;;;;;;5054262;28;20217;-73
2023/09/21 01:07:36;;;;;;;2.20;2.00;;;;;;;;;;5054140;28;20204;-73
2023/09/21 01:10:07;;;;;;;2.42;2.30;;;;;;;;;;5054292;28;20653;-73
2023/09/21 01:12:37;;;;;;;4.05;2.53;;;;;;;;;;5054583;28;20200;-73
2023/09/21 01:15:05;;;;;;;2.50;2.30;;;;;;;;;;5054244;28;20705;-73
2023/09/21 01:17:31;;;;;;;2.30;2.10;;;;;;;;;;5054616;28;20262;-73
2023/09/21 01:19:59;;;;;;;2.92;2.72;;;;;;;;;;5054223;28;20224;-73
2023/09/21 01:22:26;;;;;;;2.30;2.20;;;;;;;;;;5054080;28;20205;-73
2023/09/21 01:24:54;;;;;;;2.38;2.28;;;;;;;;;;5054153;28;20217;-73
2023/09/21 01:27:20;;;;;;;2.60;2.03;;;;;;;;;;5053945;28;20224;-73
2023/09/21 01:29:50;;;;;;;4.85;2.25;;;;;;;;;;5054287;28;20266;-73
2023/09/21 01:32:18;;;;;;;2.00;2.00;;;;;;;;;;5053891;28;20208;-73
2023/09/21 01:34:46;;;;;;;2.28;2.17;;;;;;;;;;5053872;28;20266;-73
2023/09/21 01:37:14;;;;;;;2.63;2.42;;;;;;;;;;5055960;28;20293;-73
2023/09/21 01:39:42;;;;;;;3.58;2.33;;;;;;;;;;5054133;28;20213;-73
2023/09/21 01:42:09;;;;;;;3.70;2.40;;;;;;;;;;5053989;28;20207;-73
2023/09/21 01:44:36;;;;;;;2.55;2.42;;;;;;;;;;5053086;28;20205;-73
2023/09/21 01:47:02;;;;;;;2.25;2.05;;;;;;;;;;5053461;28;20641;-73
2023/09/21 01:49:30;;;;;;;2.30;2.13;;;;;;;;;;5053377;28;20688;-73
2023/09/21 01:51:56;;;;;;;2.25;2.15;;;;;;;;;;5053634;28;20224;-73
2023/09/21 01:54:22;;;;;;;3.00;2.60;;;;;;;;;;5053565;28;20201;-73
2023/09/21 01:56:49;;;;;;;4.68;2.20;;;;;;;;;;5053360;28;20252;-73
2023/09/21 01:59:16;;;;;;;2.38;2.20;;;;;;;;;;5053238;28;20304;-73
2023/09/21 02:01:43;;;;;;;2.63;1.98;;;;;;;;;;5053784;28;20208;-73
2023/09/21 02:04:09;;;;;;;1.88;1.77;;;;;;;;;;5053170;28;20201;-73
2023/09/21 02:06:35;;;;;;;2.10;1.90;;;;;;;;;;5053057;28;20304;-73
2023/09/21 02:09:05;;;;;;;2.80;2.28;;;;;;;;;;5053470;28;20212;-73
2023/09/21 02:11:31;;;;;;;2.30;1.95;;;;;;;;;;5053124;28;20589;-73
2023/09/21 02:13:57;;;;;;;2.05;1.95;;;;;;;;;;5053247;28;20300;-73
2023/09/21 02:16:25;;;;;;;2.30;2.10;;;;;;;;;;5052877;28;20217;-73
2023/09/21 02:18:52;;;;;;;4.78;2.17;;;;;;;;;;5052915;28;20806;-73
2023/09/21 02:21:19;;;;;;;2.33;2.22;;;;;;;;;;5053134;28;20201;-73
2023/09/21 02:23:46;;;;;;;3.45;1.70;;;;;;;;;;5053210;28;20201;-73
2023/09/21 02:26:12;;;;;;;2.30;2.10;;;;;;;;;;5052570;28;20811;-73
2023/09/21 02:28:38;;;;;;;1.95;1.85;;;;;;;;;;5052788;28;20200;-73
2023/09/21 02:31:12;;;;;;;2.00;1.90;;;;;;;;;;5052745;28;20670;-73
2023/09/21 02:33:42;;;;;;;2.13;1.80;;;;;;;;;;5044851;28;20224;-73
2023/09/21 02:36:12;;;;;;;3.35;2.00;;;;;;;;;;5052666;28;20623;-73
2023/09/21 02:38:38;;;;;;;3.42;2.08;;;;;;;;;;5044875;28;20200;-73
2023/09/21 02:41:05;;;;;;;4.78;2.15;;;;;;;;;;5052781;28;20201;-73
2023/09/21 02:43:32;;;;;;;2.38;2.17;;;;;;;;;;5052585;28;20204;-73
2023/09/21 02:45:58;;;;;;;2.33;2.05;;;;;;;;;;5052397;28;20217;-73
2023/09/21 02:48:25;;;;;;;1.73;1.63;;;;;;;;;;5052536;28;20197;-73
2023/09/21 02:50:52;;;;;;;2.22;2.13;;;;;;;;;;5052673;28;20201;-73
2023/09/21 02:53:20;;;;;;;3.50;2.22;;;;;;;;;;5052583;28;20220;-73
2023/09/21 02:55:50;;;;;;;3.50;2.25;;;;;;;;;;5051585;28;20224;-73
2023/09/21 02:58:19;;;;;;;2.47;2.28;;;;;;;;;;5052035;28;20209;-73
2023/09/21 03:00:46;;;;;;;2.40;2.00;;;;;;;;;;5052307;28;20688;-73
2023/09/21 03:03:13;;;;;;;3.03;2.60;;;;;;;;;;5052661;28;20574;-73
2023/09/21 03:05:40;;;;;;;4.07;2.50;;;;;;;;;;5043981;28;20244;-73
2023/09/21 03:08:12;;;;;;;3.03;2.28;;;;;;;;;;5052100;28;20661;-73
2023/09/21 03:10:39;;;;;;;3.75;2.88;;;;;;;;;;5052389;28;20739;-73
2023/09/21 03:13:06;;;;;;;2.78;2.58;;;;;;;;;;5052526;28;20201;-73
2023/09/21 03:15:33;;;;;;;3.08;2.78;;;;;;;;;;5052162;28;20217;-73
2023/09/21 03:17:59;;;;;;;3.72;2.97;;;;;;;;;;5052344;28;20267;-73
2023/09/21 03:20:31;;;;;;;3.70;2.58;;;;;;;;;;5052179;28;20197;-73
2023/09/21 03:22:58;;;;;;;4.82;3.28;;;;;;;;;;5052490;28;20212;-73
2023/09/21 03:25:28;;;;;;;3.85;2.85;;;;;;;;;;5051874;28;20683;-74
2023/09/21 03:27:55;;;;;;;5.03;3.30;;;;;;;;;;5052125;28;20284;-73
2023/09/21 03:30:23;;;;;;;3.90;3.35;;;;;;;;;;5051752;28;20635;-73
2023/09/21 03:32:49;;;;;;;3.63;2.60;;;;;;;;;;5051845;28;20207;-73
2023/09/21 03:35:16;;;;;;;3.33;2.90;;;;;;;;;;5051841;28;20232;-73
2023/09/21 03:37:43;;;;;;;3.13;2.90;;;;;;;;;;5051566;28;20259;-73
2023/09/21 03:40:11;;;;;;;5.07;3.20;;;;;;;;;;5052043;28;20204;-73
2023/09/21 03:42:39;;;;;;;3.80;3.47;;;;;;;;;;5051730;28;20269;-73
2023/09/21 03:45:07;;;;;;;3.35;3.15;;;;;;;;;;5051780;28;20231;-73
2023/09/21 03:47:33;;;;;;;2.97;2.72;;;;;;;;;;5051485;28;20208;-73
2023/09/21 03:50:00;;;;;;;5.10;3.20;;;;;;;;;;5051457;28;20600;-73
2023/09/21 03:52:27;;;;;;;6.85;3.03;;;;;;;;;;5051341;28;20704;-73
2023/09/21 03:54:54;;;;;;;3.35;3.15;;;;;;;;;;5051490;28;21934;-73
2023/09/21 03:57:20;;;;;;;4.38;3.97;;;;;;;;;;5051328;28;20603;-73
2023/09/21 03:59:48;;;;;;;4.07;3.75;;;;;;;;;;5051599;28;20208;-73
2023/09/21 04:02:14;;;;;;;4.75;3.47;;;;;;;;;;5051496;28;20204;-73
2023/09/21 04:04:41;;;;;;;4.03;3.00;;;;;;;;;;5051324;28;20293;-73
2023/09/21 04:07:07;;;;;;;3.53;3.22;;;;;;;;;;5052603;28;20217;-74
2023/09/21 04:09:34;;;;;;;4.65;3.40;;;;;;;;;;5055580;28;20247;-73
2023/09/21 04:12:00;;;;;;;5.63;3.80;;;;;;;;;;5055633;28;20217;-73
2023/09/21 04:14:27;;;;;;;4.80;3.13;;;;;;;;;;5055509;28;20201;-74
2023/09/21 04:16:55;;;;;;;3.65;3.35;;;;;;;;;;5055101;28;20217;-73
2023/09/21 04:19:22;;;;;;;3.90;3.60;;;;;;;;;;5055069;28;20620;-74
2023/09/21 04:21:48;;;;;;;4.10;3.63;;;;;;;;;;5055319;28;20197;-73
2023/09/21 04:24:14;;;;;;;2.88;2.78;;;;;;;;;;5055372;28;20616;-73
2023/09/21 04:26:41;;;;;;;4.60;3.33;;;;;;;;;;5055012;28;20221;-72
2023/09/21 04:29:09;;;;;;;3.90;2.80;;;;;;;;;;5055291;28;20221;-73
2023/09/21 04:31:35;;;;;;;4.85;2.97;;;;;;;;;;5055108;28;20627;-73
2023/09/21 04:34:03;;;;;;;3.40;3.00;;;;;;;;;;5055038;28;20288;-73
2023/09/21 04:36:29;;;;;;;2.92;2.72;;;;;;;;;;5054842;28;20271;-73
2023/09/21 04:38:56;;;;;;;4.18;2.90;;;;;;;;;;5055109;28;20198;-73
2023/09/21 04:41:22;;;;;;;2.90;2.65;;;;;;;;;;5054944;28;20205;-73
2023/09/21 04:43:49;;;;;;;2.70;2.50;;;;;;;;;;5054928;28;20764;-73
2023/09/21 04:46:17;;;;;;;3.35;3.00;;;;;;;;;;5053774;28;20263;-71
2023/09/21 04:48:43;;;;;;;2.85;2.65;;;;;;;;;;5053788;28;20312;-71
2023/09/21 04:51:14;;;;;;;2.65;2.47;;;;;;;;;;5054352;28;20205;-71
2023/09/21 04:53:41;;;;;;;2.15;2.15;;;;;;;;;;5054735;28;20197;-71
2023/09/21 04:56:07;;;;;;;4.28;2.70;;;;;;;;;;5054705;28;20215;-71
2023/09/21 04:58:34;;;;;;;2.67;2.50;;;;;;;;;;5054357;28;20197;-71
2023/09/21 05:01:09;;;;;;;3.65;2.10;;;;;;;;;;5054666;28;20193;-71
2023/09/21 05:03:35;;;;;;;3.53;2.80;;;;;;;;;;5054524;28;20208;-71
2023/09/21 05:06:02;;;;;;;2.67;2.47;;;;;;;;;;5054378;28;20237;-71
2023/09/21 05:08:35;;;;;;;2.30;2.22;;;;;;;;;;5054032;28;20193;-71
2023/09/21 05:11:01;;;;;;;2.83;2.63;;;;;;;;;;5054414;28;20197;-71
2023/09/21 05:13:27;;;;;;;2.45;2.35;;;;;;;;;;5054273;28;20197;-71
2023/09/21 05:15:54;;;;;;;4.72;2.58;;;;;;;;;;5054134;28;20213;-71
2023/09/21 05:18:20;;;;;;;2.58;2.38;;;;;;;;;;5053451;28;20199;-71
2023/09/21 05:20:46;;;;;;;3.67;2.70;;;;;;;;;;5054166;28;20201;-71
2023/09/21 05:23:13;;;;;;;3.75;2.58;;;;;;;;;;5054370;28;20744;-71
2023/09/21 05:25:41;;;;;;;3.47;2.58;;;;;;;;;;5053784;28;20225;-71
2023/09/21 05:28:08;;;;;;;5.82;2.47;;;;;;;;;;5053726;28;20597;-71
2023/09/21 05:30:35;;;;;;;2.65;2.42;;;;;;;;;;5053951;28;20685;-71
2023/09/21 05:33:02;;;;;;;3.72;2.75;;;;;;;;;;5053812;28;20201;-71
2023/09/21 05:35:29;;;;;;;3.92;2.58;;;;;;;;;;5053995;28;20217;-71
2023/09/21 05:37:55;;;;;;;2.70;2.50;;;;;;;;;;5053819;28;20194;-71
2023/09/21 05:40:22;;;;;;;4.75;2.40;;;;;;;;;;5053979;28;20208;-71
2023/09/21 05:42:50;;;;;;;2.53;2.33;;;;;;;;;;5049794;28;22149;-66
2023/09/21 05:45:16;;;;;;;4.65;3.10;;;;;;;;;;5047806;28;20224;-66
2023/09/21 05:47:43;;;;;;;3.03;2.78;;;;;;;;;;5049287;28;20228;-68
2023/09/21 05:50:09;;;;;;;3.50;2.80;;;;;;;;;;5049136;28;20212;-68
2023/09/21 05:52:35;;;;;;;4.38;3.03;;;;;;;;;;5048053;28;20204;-69
2023/09/21 05:55:02;;;;;;;2.72;2.60;;;;;;;;;;5048179;28;20231;-69
2023/09/21 05:57:29;;;;;;;6.45;3.10;;;;;;;;;;5047823;28;20229;-69
2023/09/21 05:59:56;;;;;;;9.05;2.92;;;;;;;;;;5048182;28;20209;-68
2023/09/21 06:02:23;;;;;;;3.25;2.80;;;;;;;;;;5048078;28;20820;-68
2023/09/21 06:04:50;;;;;;;6.63;3.33;;;;;;;;;;5048119;28;20745;-68
2023/09/21 06:07:16;;;;;;;4.93;3.22;;;;;;;;;;5047665;28;20243;-69
2023/09/21 06:09:43;;;;;;;6.55;2.80;;;;;;;;;;5047839;28;20210;-71
2023/09/21 06:12:10;;;;;;;6.85;2.88;;;;;;;;;;5047874;28;20292;-72
2023/09/21 06:14:37;;;;;;;5.55;3.10;;;;;;;;;;5043292;28;20209;-72
2023/09/21 06:17:06;;;;;;;9.50;3.13;;;;;;;;;;5035884;28;20212;-69
2023/09/21 06:19:32;;;;;;;8.25;3.15;;;;;;;;;;5042540;28;20212;-68
2023/09/21 06:21:58;;;;;;;3.70;3.05;;;;;;;;;;5036416;28;20217;-68
2023/09/21 06:24:25;;;;;;;5.38;2.85;;;;;;;;;;5037185;28;20229;-68
2023/09/21 06:26:52;;;;;;;6.97;3.17;;;;;;;;;;5042005;28;20705;-68
2023/09/21 06:29:19;;;;;;;11.32;2.83;;;;;;;;;;5045899;28;20209;-68
2023/09/21 06:31:46;;;;;;;5.70;2.92;;;;;;;;;;5046294;28;20689;-68
2023/09/21 06:34:18;;;;;;;4.40;2.97;;;;;;;;;;5040892;28;20209;-68
2023/09/21 06:36:44;;;;;;;2.47;2.28;;;;;;;;;;5045783;28;20221;-68
2023/09/21 06:39:11;;;;;;;7.70;3.10;;;;;;;;;;5040647;28;20216;-68
2023/09/21 06:41:40;;;;;;;10.13;3.25;;;;;;;;;;5044029;28;20236;-67
2023/09/21 06:44:06;;;;;;;9.40;3.05;;;;;;;;;;5036565;28;20291;-67
2023/09/21 06:46:32;;;;;;;3.88;2.50;;;;;;;;;;5035440;28;20229;-68
2023/09/21 06:49:01;;;;;;;6.28;2.65;;;;;;;;;;5032467;28;20208;-70
2023/09/21 06:51:28;;;;;;;6.18;2.97;;;;;;;;;;5047626;28;20624;-68
2023/09/21 06:53:56;;;;;;;5.38;3.35;;;;;;;;;;5044092;28;20205;-69
2023/09/21 06:56:23;;;;;;;4.80;2.88;;;;;;;;;;5043153;28;20611;-69
2023/09/21 06:58:49;;;;;;;10.43;2.90;;;;;;;;;;5046409;28;20240;-68
2023/09/21 07:01:16;;;;;;;3.55;2.88;;;;;;;;;;5045270;28;20689;-68
2023/09/21 07:03:43;;;;;;;3.65;2.55;;;;;;;;;;5045328;28;20465;-67
2023/09/21 07:06:10;;;;;;;5.97;3.08;;;;;;;;;;5041578;28;20227;-67
2023/09/21 07:08:37;;;;;;;4.85;3.15;;;;;;;;;;5038723;28;20252;-66
2023/09/21 07:11:05;;;;;;;5.30;3.25;;;;;;;;;;5045746;28;20292;-67
2023/09/21 07:13:32;;;;;;;9.80;3.35;;;;;;;;;;5038816;28;20216;-69
2023/09/21 07:15:59;;;;;;;3.10;2.53;;;;;;;;;;5039771;28;20229;-70
2023/09/21 07:18:26;;;;;;;2.88;2.65;;;;;;;;;;5039326;28;20692;-70
2023/09/21 07:20:54;;;;;;;5.93;3.00;;;;;;;;;;5044798;28;20300;-67
2023/09/21 07:23:20;;;;;;;2.70;2.47;;;;;;;;;;5044379;28;20209;-66
2023/09/21 07:25:47;;;;;;;2.80;2.60;;;;;;;;;;5044738;28;20228;-69
2023/09/21 07:28:14;;;;;;;4.15;2.67;;;;;;;;;;5042873;28;20209;-69
2023/09/21 07:30:40;;;;;;;4.35;2.53;;;;;;;;;;5043164;28;20224;-71
2023/09/21 07:33:08;;;;;;;5.28;2.22;;;;;;;;;;5044797;28;20205;-71
2023/09/21 07:35:34;;;;;;;2.78;2.35;;;;;;;;;;5041704;28;20225;-70
2023/09/21 07:38:01;;;;;;;2.85;2.60;;;;;;;;;;5041772;28;20197;-69
2023/09/21 07:40:27;;;;;;;6.10;2.45;;;;;;;;;;5041246;28;20216;-69
2023/09/21 07:42:56;;;;;;;2.85;2.42;;;;;;;;;;5043295;28;20290;-68
2023/09/21 07:45:24;;;;;;;7.70;2.63;;;;;;;;;;5035758;28;20222;-68
2023/09/21 07:47:52;;;;;;;6.43;3.00;;;;;;;;;;5037849;28;21058;-69
2023/09/21 07:50:22;;;;;;;5.03;3.28;;;;;;;;;;5039203;28;20259;-70
2023/09/21 07:52:49;;;;;;;5.95;2.42;;;;;;;;;;5045155;28;20212;-67
2023/09/21 07:55:15;;;;;;;2.67;2.47;;;;;;;;;;5039824;28;20221;-70
2023/09/21 07:57:41;;;;;;;4.43;2.58;;;;;;;;;;5038630;28;20943;-69
2023/09/21 08:00:10;;;;;;;2.88;2.38;;;;;;;;;;5033778;28;20205;-67
2023/09/21 08:02:37;;;;;;;4.93;2.42;;;;;;;;;;5036751;28;20762;-67
2023/09/21 08:05:04;;;;;;;4.10;2.17;;;;;;;;;;5033578;28;20225;-69
2023/09/21 08:07:32;;;;;;;2.67;2.28;;;;;;;;;;5031356;28;20214;-69
2023/09/21 08:10:00;;;;;;;7.38;2.45;;;;;;;;;;5042755;28;20255;-69
2023/09/21 08:12:27;;;;;;;4.20;2.45;;;;;;;;;;5034757;28;20233;-69
2023/09/21 08:14:54;;;;;;;2.60;2.40;;;;;;;;;;5030260;28;20217;-69
2023/09/21 08:17:21;;;;;;;3.78;2.47;;;;;;;;;;5044642;28;20555;-69
2023/09/21 08:19:48;;;;;;;2.55;2.35;;;;;;;;;;5038360;28;20209;-69
2023/09/21 08:22:14;;;;;;;2.78;2.17;;;;;;;;;;5044552;28;20217;-69
2023/09/21 08:24:42;;;;;;;2.22;2.03;;;;;;;;;;5044595;28;20209;-69
2023/09/21 08:27:08;;;;;;;4.18;2.08;;;;;;;;;;5040572;28;20241;-69
2023/09/21 08:29:34;;;;;;;5.18;2.30;;;;;;;;;;5033446;28;20724;-69
2023/09/21 08:32:02;;;;;;;7.00;2.58;;;;;;;;;;5043351;28;20209;-68
2023/09/21 08:34:29;;;;;;;3.10;1.92;;;;;;;;;;5031707;28;20210;-68
2023/09/21 08:36:55;;;;;;;4.38;1.85;;;;;;;;;;5031943;28;20618;-68
2023/09/21 08:39:22;;;;;;;2.03;1.85;;;;;;;;;;5045849;28;20209;-68
2023/09/21 08:41:49;;;;;;;6.50;2.40;;;;;;;;;;5041565;28;20673;-72
2023/09/21 08:44:16;;;;;;;2.17;1.98;;;;;;;;;;5040707;28;20233;-68
2023/09/21 08:46:42;;;;;;;3.22;2.40;;;;;;;;;;5041813;28;20717;-68
2023/09/21 08:49:09;;;;;;;1.98;1.95;;;;;;;;;;5039446;28;20213;-69
2023/09/21 08:51:39;;;;;;;2.33;2.22;;;;;;;;;;5037255;28;20214;-68
2023/09/21 08:54:07;;;;;;;6.57;2.08;;;;;;;;;;5044628;28;20217;-68
2023/09/21 08:56:35;;;;;;;2.50;2.25;;;;;;;;;;5046557;28;20225;-69
2023/09/21 08:59:04;;;;;;;7.00;2.10;;;;;;;;;;5034566;28;20619;-66
2023/09/21 09:01:30;;;;;;;7.35;2.17;;;;;;;;;;5038690;28;20228;-67
2023/09/21 09:03:58;;;;;;;5.35;2.13;;;;;;;;;;5038875;28;20209;-66
2023/09/21 09:06:24;;;;;;;7.40;2.42;;;;;;;;;;5040299;28;20217;-70
2023/09/21 09:08:52;;;;;;;2.55;2.30;;;;;;;;;;5045365;28;20251;-67
2023/09/21 09:11:35;;;;;;;4.93;2.33;;;;;;;;;;5041114;28;20326;-69
2023/09/21 09:14:02;;;;;;;4.10;1.98;;;;;;;;;;5043506;28;20208;-69
2023/09/21 09:16:28;;;;;;;3.20;2.50;;;;;;;;;;5045966;28;20859;-74
2023/09/21 09:18:57;;;;;;;4.22;2.00;;;;;;;;;;5043964;28;20204;-75
2023/09/21 09:21:23;;;;;;;1.88;1.77;;;;;;;;;;5035272;28;20236;-75
2023/09/21 09:23:49;;;;;;;2.38;2.15;;;;;;;;;;5043560;28;20213;-75
2023/09/21 09:26:19;;;;;;;2.55;1.85;;;;;;;;;;5044854;28;20475;-75
2023/09/21 09:28:45;;;;;;;1.98;1.60;;;;;;;;;;5035539;28;20224;-75
2023/09/21 09:31:11;;;;;;;4.45;1.88;;;;;;;;;;5038735;28;20213;-75
2023/09/21 09:33:38;;;;;;;2.90;1.90;;;;;;;;;;5042229;28;20217;-75
2023/09/21 09:36:04;;;;;;;4.93;1.77;;;;;;;;;;5032350;28;20232;-75
2023/09/21 09:38:33;;;;;;;3.58;2.03;;;;;;;;;;5046938;28;20213;-75
2023/09/21 09:41:02;;;;;;;3.65;1.60;;;;;;;;;;5045690;28;20204;-75
2023/09/21 09:43:30;;;;;;;5.38;1.90;;;;;;;;;;5032296;28;20652;-74
2023/09/21 09:45:58;;;;;;;1.63;1.52;;;;;;;;;;5046258;28;20216;-74
2023/09/21 09:48:26;;;;;;;3.22;1.80;;;;;;;;;;5045854;28;20923;-74
2023/09/21 09:50:55;;;;;;;1.92;1.73;;;;;;;;;;5046586;28;20204;-75
2023/09/21 09:53:23;;;;;;;1.60;1.50;;;;;;;;;;5038098;28;20259;-75
2023/09/21 09:55:53;;;;;;;4.38;1.65;;;;;;;;;;5044745;28;20307;-75
2023/09/21 09:58:20;;;;;;;2.67;1.50;;;;;;;;;;5034513;28;20470;-75
2023/09/21 10:00:51;;;;;;;2.22;1.50;;;;;;;;;;5032324;28;20212;-75
2023/09/21 10:03:17;;;;;;;3.65;1.50;;;;;;;;;;5045086;28;20197;-75
2023/09/21 10:05:44;;;;;;;2.30;1.80;;;;;;;;;;5034792;28;20649;-75
2023/09/21 10:08:10;;;;;;;1.90;1.48;;;;;;;;;;5043712;28;20221;-75
2023/09/21 10:10:42;;;;;;;3.00;1.58;;;;;;;;;;5040538;28;20239;-75
2023/09/21 10:13:10;;;;;;;1.73;1.63;;;;;;;;;;5030807;28;20212;-75
2023/09/21 10:15:36;;;;;;;2.08;1.30;;;;;;;;;;5036083;28;20251;-75
2023/09/21 10:18:05;;;;;;;1.60;1.48;;;;;;;;;;5041805;28;20262;-75
2023/09/21 10:20:32;;;;;;;2.05;1.52;;;;;;;;;;5040712;28;20209;-75
2023/09/21 10:23:01;;;;;;;1.33;1.23;;;;;;;;;;5047033;28;20213;-75
2023/09/21 10:25:38;;;;;;;1.88;1.48;;;;;;;;;;5046800;28;20220;-74
2023/09/21 10:28:39;;;;;;;1.50;1.40;;;;;;;;;;5045145;28;20222;-73
2023/09/21 10:31:20;;;;;;;1.60;1.50;;;;;;;;;;4991118;28;20320;-75
2023/09/21 10:34:05;;;;;;;1.60;1.40;;;;;;;;;;4998133;28;20602;-75
2023/09/21 10:36:31;;;;;;;2.13;1.30;;;;;;;;;;5017045;28;20247;-75
2023/09/21 10:39:13;;;;;;;1.42;1.40;;;;;;;;;;5035038;28;20601;-75
2023/09/21 10:41:43;;;;;;;1.95;1.50;;;;;;;;;;5039323;28;20308;-75
2023/09/21 10:44:09;;;;;;;2.13;1.27;;;;;;;;;;5029967;28;20250;-76
2023/09/21 10:46:37;;;;;;;1.60;1.50;;;;;;;;;;5030517;28;20228;-75
2023/09/21 10:49:14;;;;;;;1.20;1.10;;;;;;;;;;5042157;28;20267;-76
2023/09/21 10:51:40;;;;;;;1.40;1.30;;;;;;;;;;5042289;28;20212;-74
2023/09/21 10:54:06;;;;;;;1.40;1.30;;;;;;;;;;5044718;28;20672;-73
2023/09/21 10:56:33;;;;;;;2.70;1.58;;;;;;;;;;5045292;28;20220;-73
2023/09/21 10:58:59;;;;;;;1.27;1.27;;;;;;;;;;5041996;28;20209;-73
2023/09/21 11:01:26;;;;;;;50.67;5.47;;;;;;;;;;5038391;28;20215;-73
2023/09/21 11:03:52;;;;;;;13.95;2.38;;;;;;;;;;5041397;28;20205;-73
2023/09/21 11:06:21;;;;;;;11.70;2.17;;;;;;;;;;5037998;28;20244;-76
2023/09/21 11:08:48;;;;;;;2.28;1.50;;;;;;;;;;5032838;28;20221;-76
2023/09/21 11:11:14;;;;;;;3.45;1.40;;;;;;;;;;5039551;28;20220;-75
2023/09/21 11:13:41;;;;;;;7.32;1.77;;;;;;;;;;5034880;28;20220;-74
2023/09/21 11:16:09;;;;;;;1.52;1.42;;;;;;;;;;5033770;28;20327;-73
2023/09/21 11:18:35;;;;;;;1.67;1.42;;;;;;;;;;5044221;28;20504;-73
2023/09/21 11:21:03;;;;;;;31.33;10.38;;;;;;;;;;5032980;28;20236;-79
2023/09/21 11:23:32;;;;;;;64.05;28.23;;;;;;;;;;5047308;28;20201;-78
2023/09/21 11:26:00;;;;;;;40.70;17.05;;;;;;;;;;5053978;28;20220;-78
2023/09/21 11:28:27;;;;;;;10.18;2.60;;;;;;;;;;5046473;28;20374;-78
2023/09/21 11:30:56;;;;;;;3.25;1.60;;;;;;;;;;5047261;28;20304;-77
2023/09/21 11:33:22;;;;;;;1.42;1.33;;;;;;;;;;5046673;28;20212;-76
2023/09/21 11:35:51;;;;;;;3.65;1.60;;;;;;;;;;5048928;28;20224;-80
2023/09/21 11:38:17;;;;;;;1.10;1.10;;;;;;;;;;5048979;28;20208;-78
2023/09/21 11:40:44;;;;;;;3.38;1.98;;;;;;;;;;5046130;28;20246;-77
2023/09/21 11:43:13;;;;;;;2.60;1.50;;;;;;;;;;5037836;28;20211;-76
2023/09/21 11:45:39;;;;;;;1.58;1.48;;;;;;;;;;5034071;28;20314;-76
2023/09/21 11:48:06;;;;;;;1.25;1.17;;;;;;;;;;5034166;28;20227;-77
2023/09/21 11:50:34;;;;;;;1.73;1.63;;;;;;;;;;5035126;28;20204;-77
2023/09/21 11:53:04;;;;;;;2.95;1.48;;;;;;;;;;5035033;28;20312;-76
2023/09/21 11:55:31;;;;;;;2.22;1.38;;;;;;;;;;5038477;28;20315;-77
2023/09/21 11:58:09;;;;;;;5.20;1.67;;;;;;;;;;5037186;28;20205;-75
2023/09/21 12:00:45;;;;;;;3.22;1.42;;;;;;;;;;5040307;28;20227;-78
2023/09/21 12:03:12;;;;;;;1.58;1.48;;;;;;;;;;5040126;28;20212;-75
2023/09/21 12:05:39;;;;;;;2.00;1.67;;;;;;;;;;5038005;28;20228;-75
2023/09/21 12:08:07;;;;;;;1.58;1.48;;;;;;;;;;5043462;28;20225;-74
2023/09/21 12:10:33;;;;;;;1.30;1.17;;;;;;;;;;5035531;28;20638;-76
2023/09/21 12:13:00;;;;;;;3.15;1.17;;;;;;;;;;5038148;28;20716;-75
2023/09/21 12:15:28;;;;;;;2.17;1.70;;;;;;;;;;5030534;28;20319;-75
2023/09/21 12:17:54;;;;;;;4.05;1.60;;;;;;;;;;5032570;28;20529;-75
2023/09/21 12:20:21;;;;;;;6.47;1.45;;;;;;;;;;5029320;28;20213;-77
2023/09/21 12:22:48;;;;;;;4.00;1.27;;;;;;;;;;5044319;28;20208;-76
2023/09/21 12:25:15;;;;;;;3.35;1.30;;;;;;;;;;5043499;28;20251;-76
2023/09/21 12:27:42;;;;;;;2.70;1.42;;;;;;;;;;5042663;28;20258;-76
2023/09/21 12:30:12;;;;;;;4.70;1.70;;;;;;;;;;5047725;28;20225;-75
2023/09/21 12:32:40;;;;;;;2.50;1.23;;;;;;;;;;5040849;28;20584;-75
2023/09/21 12:35:08;;;;;;;2.90;1.65;;;;;;;;;;5048012;28;20244;-75
2023/09/21 12:37:34;;;;;;;1.20;1.10;;;;;;;;;;5045610;28;20217;-75
2023/09/21 12:40:01;;;;;;;4.03;1.38;;;;;;;;;;5044039;28;20208;-75
2023/09/21 12:42:28;;;;;;;2.30;1.30;;;;;;;;;;5045787;28;20208;-75
2023/09/21 12:44:54;;;;;;;1.55;1.23;;;;;;;;;;5037994;28;22002;-75
2023/09/21 12:47:20;;;;;;;0.95;0.95;;;;;;;;;;5045782;28;20209;-76
2023/09/21 12:49:48;;;;;;;2.35;1.20;;;;;;;;;;5046504;28;20236;-74
2023/09/21 12:52:15;;;;;;;3.97;1.30;;;;;;;;;;5044210;28;20215;-74
2023/09/21 12:54:41;;;;;;;3.38;1.30;;;;;;;;;;5043141;28;20208;-74
2023/09/21 12:57:07;;;;;;;1.40;1.30;;;;;;;;;;5045030;28;20217;-74
2023/09/21 12:59:35;;;;;;;1.50;1.17;;;;;;;;;;5040870;28;20203;-74
2023/09/21 13:02:01;;;;;;;1.10;0.90;;;;;;;;;;5042542;28;20197;-74
2023/09/21 13:04:27;;;;;;;2.35;1.13;;;;;;;;;;5042379;28;20248;-73
2023/09/21 13:06:55;;;;;;;2.22;1.05;;;;;;;;;;5047412;28;20703;-72
2023/09/21 13:09:22;;;;;;;1.70;1.02;;;;;;;;;;5046248;28;20223;-72
2023/09/21 13:11:48;;;;;;;1.00;1.00;;;;;;;;;;5047281;28;20295;-73
2023/09/21 13:14:14;;;;;;;4.50;1.23;;;;;;;;;;5047131;28;20605;-72
2023/09/21 13:16:41;;;;;;;1.40;1.30;;;;;;;;;;5041014;28;20635;-72
2023/09/21 13:19:07;;;;;;;4.07;1.05;;;;;;;;;;5039927;28;20213;-73
2023/09/21 13:21:33;;;;;;;1.95;1.00;;;;;;;;;;5040129;28;20240;-72
2023/09/21 13:24:01;;;;;;;0.90;0.90;;;;;;;;;;5042171;28;20692;-72
2023/09/21 13:26:27;;;;;;;2.33;1.23;;;;;;;;;;5047305;28;20311;-73
2023/09/21 13:28:54;;;;;;;2.60;1.20;;;;;;;;;;5034077;28;20216;-72
2023/09/21 13:31:23;;;;;;;2.65;1.42;;;;;;;;;;5044338;28;20220;-72
2023/09/21 13:33:49;;;;;;;1.25;1.25;;;;;;;;;;5040134;28;20223;-72
2023/09/21 13:36:15;;;;;;;3.67;1.50;;;;;;;;;;5046738;28;20225;-73
2023/09/21 13:38:41;;;;;;;1.98;1.30;;;;;;;;;;5046448;28;20204;-73
2023/09/21 13:41:10;;;;;;;2.08;1.30;;;;;;;;;;5046357;28;20217;-73
2023/09/21 13:43:37;;;;;;;2.03;1.00;;;;;;;;;;5040175;28;20589;-73
2023/09/21 13:46:04;;;;;;;0.90;0.90;;;;;;;;;;5036093;28;20668;-72
2023/09/21 13:48:32;;;;;;;1.95;1.17;;;;;;;;;;5043035;28;20240;-73
2023/09/21 13:50:59;;;;;;;1.73;1.10;;;;;;;;;;5044974;28;20204;-73
2023/09/21 13:53:26;;;;;;;7.97;1.38;;;;;;;;;;5043903;28;20588;-73
2023/09/21 13:55:53;;;;;;;2.13;1.23;;;;;;;;;;5044509;28;20224;-72
2023/09/21 13:58:21;;;;;;;1.23;1.13;;;;;;;;;;5037329;28;20644;-72
2023/09/21 14:00:48;;;;;;;3.13;1.38;;;;;;;;;;5045951;28;20216;-72
2023/09/21 14:03:15;;;;;;;4.60;1.33;;;;;;;;;;5042303;28;20209;-72
2023/09/21 14:05:41;;;;;;;1.02;1.02;;;;;;;;;;5040353;28;20231;-72
2023/09/21 14:08:09;;;;;;;1.95;1.67;;;;;;;;;;5042960;28;20204;-72
2023/09/21 14:10:35;;;;;;;4.45;2.50;;;;;;;;;;5035844;28;20736;-72
2023/09/21 14:13:02;;;;;;;2.22;2.13;;;;;;;;;;5028900;28;20216;-72
2023/09/21 14:15:29;;;;;;;1.95;1.80;;;;;;;;;;5031263;28;20225;-74
2023/09/21 14:17:56;;;;;;;1.38;1.38;;;;;;;;;;5041813;28;20201;-75
2023/09/21 14:20:22;;;;;;;1.52;1.40;;;;;;;;;;5033596;28;20585;-75
2023/09/21 14:22:48;;;;;;;1.23;1.23;;;;;;;;;;5046464;28;20207;-75
2023/09/21 14:25:15;;;;;;;1.67;1.58;;;;;;;;;;5046006;28;20231;-75
2023/09/21 14:27:41;;;;;;;1.50;1.40;;;;;;;;;;5034419;28;20236;-76
2023/09/21 14:30:08;;;;;;;1.55;1.23;;;;;;;;;;5045785;28;20278;-75
2023/09/21 14:32:36;;;;;;;1.05;1.05;;;;;;;;;;5046194;28;20448;-76
2023/09/21 14:35:03;;;;;;;1.45;1.35;;;;;;;;;;5047543;28;20304;-77
2023/09/21 14:37:29;;;;;;;2.53;1.35;;;;;;;;;;5045706;28;20692;-76
2023/09/21 14:39:59;;;;;;;1.17;1.10;;;;;;;;;;5034235;28;20197;-76
2023/09/21 14:42:26;;;;;;;1.48;1.00;;;;;;;;;;5043377;28;20609;-77
2023/09/21 14:44:52;;;;;;;1.65;1.27;;;;;;;;;;5047335;28;20207;-75